sensor_id;sensor_type;location;lat;lon;timestamp;temperature;humidity
32348;DHT22;18821;44.800;10.326;2023-12-29T00:01:55;9.20;99.90
32348;DHT22;18821;44.800;10.326;2023-12-29T00:04:21;9.20;99.90
32348;DHT22;18821;44.800;10.326;2023-12-29T00:06:47;9.20;99.90
32348;DHT22;18821;44.800;10.326;2023-12-29T00:09:17;9.10;99.90
32348;DHT22;18821;44.800;10.326;2023-12-29T00:11:47;9.10;99.90
32348;DHT22;18821;44.800;10.326;2023-12-29T00:14:13;9.10;99.90
32348;DHT22;18821;44.800;10.326;2023-12-29T00:16:39;9.10;99.90
32348;DHT22;18821;44.800;10.326;2023-12-29T00:19:05;9.10;99.90
32348;DHT22;18821;44.800;10.326;2023-12-29T00:21:31;9.10;99.90
32348;DHT22;18821;44.800;10.326;2023-12-29T00:23:57;9.20;99.90
32348;DHT22;18821;44.800;10.326;2023-12-29T00:26:23;9.30;99.90
32348;DHT22;18821;44.800;10.326;2023-12-29T00:28:55;9.30;99.90
32348;DHT22;18821;44.800;10.326;2023-12-29T00:31:21;9.30;99.90
32348;DHT22;18821;44.800;10.326;2023-12-29T00:33:47;9.30;99.90
32348;DHT22;18821;44.800;10.326;2023-12-29T00:36:19;9.30;99.90
32348;DHT22;18821;44.800;10.326;2023-12-29T00:38:45;9.30;99.90
32348;DHT22;18821;44.800;10.326;2023-12-29T00:41:12;9.40;99.90
32348;DHT22;18821;44.800;10.326;2023-12-29T00:43:37;9.40;99.90
32348;DHT22;18821;44.800;10.326;2023-12-29T00:46:04;9.40;99.90
32348;DHT22;18821;44.800;10.326;2023-12-29T00:48:33;9.40;99.90
32348;DHT22;18821;44.800;10.326;2023-12-29T00:51:03;9.40;99.90
32348;DHT22;18821;44.800;10.326;2023-12-29T00:53:30;9.40;99.90
32348;DHT22;18821;44.800;10.326;2023-12-29T00:55:59;9.40;99.90
32348;DHT22;18821;44.800;10.326;2023-12-29T00:58:25;9.50;99.90
32348;DHT22;18821;44.800;10.326;2023-12-29T01:00:51;9.50;99.90
32348;DHT22;18821;44.800;10.326;2023-12-29T01:03:17;9.50;99.90
32348;DHT22;18821;44.800;10.326;2023-12-29T01:05:43;9.50;99.90
32348;DHT22;18821;44.800;10.326;2023-12-29T01:08:09;9.50;99.90
32348;DHT22;18821;44.800;10.326;2023-12-29T01:10:35;9.50;99.90
32348;DHT22;18821;44.800;10.326;2023-12-29T01:13:03;9.50;99.90
32348;DHT22;18821;44.800;10.326;2023-12-29T01:15:29;9.30;99.90
32348;DHT22;18821;44.800;10.326;2023-12-29T01:17:55;9.30;99.90
32348;DHT22;18821;44.800;10.326;2023-12-29T01:20:21;9.30;99.90
32348;DHT22;18821;44.800;10.326;2023-12-29T01:22:47;9.20;99.90
32348;DHT22;18821;44.800;10.326;2023-12-29T01:25:12;9.20;99.90
32348;DHT22;18821;44.800;10.326;2023-12-29T01:27:38;9.20;99.90
32348;DHT22;18821;44.800;10.326;2023-12-29T01:30:05;9.20;99.90
32348;DHT22;18821;44.800;10.326;2023-12-29T01:32:31;9.10;99.90
32348;DHT22;18821;44.800;10.326;2023-12-29T01:34:57;9.10;99.90
32348;DHT22;18821;44.800;10.326;2023-12-29T01:37:23;9.10;99.90
32348;DHT22;18821;44.800;10.326;2023-12-29T01:39:50;9.00;99.90
32348;DHT22;18821;44.800;10.326;2023-12-29T01:42:18;9.00;99.90
32348;DHT22;18821;44.800;10.326;2023-12-29T01:44:44;9.00;99.90
32348;DHT22;18821;44.800;10.326;2023-12-29T01:47:14;9.00;99.90
32348;DHT22;18821;44.800;10.326;2023-12-29T01:49:46;9.10;99.90
32348;DHT22;18821;44.800;10.326;2023-12-29T01:52:16;9.10;99.90
32348;DHT22;18821;44.800;10.326;2023-12-29T01:54:43;9.10;99.90
32348;DHT22;18821;44.800;10.326;2023-12-29T01:57:10;9.10;99.90
32348;DHT22;18821;44.800;10.326;2023-12-29T01:59:37;9.20;99.90
32348;DHT22;18821;44.800;10.326;2023-12-29T02:02:04;9.20;99.90
32348;DHT22;18821;44.800;10.326;2023-12-29T02:04:31;9.30;99.90
32348;DHT22;18821;44.800;10.326;2023-12-29T02:06:57;9.30;99.90
32348;DHT22;18821;44.800;10.326;2023-12-29T02:09:25;9.40;99.90
32348;DHT22;18821;44.800;10.326;2023-12-29T02:11:51;9.40;99.90
32348;DHT22;18821;44.800;10.326;2023-12-29T02:14:18;9.50;99.90
32348;DHT22;18821;44.800;10.326;2023-12-29T02:17:01;9.40;99.90
32348;DHT22;18821;44.800;10.326;2023-12-29T02:22:07;9.50;99.90
32348;DHT22;18821;44.800;10.326;2023-12-29T02:24:34;9.50;99.90
32348;DHT22;18821;44.800;10.326;2023-12-29T02:29:44;9.50;99.90
32348;DHT22;18821;44.800;10.326;2023-12-29T02:32:14;9.50;99.90
32348;DHT22;18821;44.800;10.326;2023-12-29T02:34:43;9.60;99.90
32348;DHT22;18821;44.800;10.326;2023-12-29T02:37:10;9.60;99.90
32348;DHT22;18821;44.800;10.326;2023-12-29T02:39:37;9.60;99.90
32348;DHT22;18821;44.800;10.326;2023-12-29T02:42:04;9.60;99.90
32348;DHT22;18821;44.800;10.326;2023-12-29T02:44:30;9.60;99.90
32348;DHT22;18821;44.800;10.326;2023-12-29T02:46:56;9.60;99.90
32348;DHT22;18821;44.800;10.326;2023-12-29T02:49:22;9.60;99.90
32348;DHT22;18821;44.800;10.326;2023-12-29T02:51:48;9.60;99.90
32348;DHT22;18821;44.800;10.326;2023-12-29T02:54:15;9.60;99.90
32348;DHT22;18821;44.800;10.326;2023-12-29T02:56:41;9.60;99.90
32348;DHT22;18821;44.800;10.326;2023-12-29T02:59:08;9.60;99.90
32348;DHT22;18821;44.800;10.326;2023-12-29T03:01:34;9.60;99.90
32348;DHT22;18821;44.800;10.326;2023-12-29T03:04:01;9.60;99.90
32348;DHT22;18821;44.800;10.326;2023-12-29T03:06:27;9.70;99.90
32348;DHT22;18821;44.800;10.326;2023-12-29T03:08:53;9.60;99.90
32348;DHT22;18821;44.800;10.326;2023-12-29T03:11:20;9.70;99.90
32348;DHT22;18821;44.800;10.326;2023-12-29T03:13:46;9.60;99.90
32348;DHT22;18821;44.800;10.326;2023-12-29T03:16:12;9.60;99.90
32348;DHT22;18821;44.800;10.326;2023-12-29T03:18:38;9.60;99.90
32348;DHT22;18821;44.800;10.326;2023-12-29T03:21:06;9.60;99.90
32348;DHT22;18821;44.800;10.326;2023-12-29T03:23:33;9.60;99.90
32348;DHT22;18821;44.800;10.326;2023-12-29T03:26:00;9.70;99.90
32348;DHT22;18821;44.800;10.326;2023-12-29T03:28:26;9.70;99.90
32348;DHT22;18821;44.800;10.326;2023-12-29T03:30:52;9.70;99.90
32348;DHT22;18821;44.800;10.326;2023-12-29T03:33:18;9.70;99.90
32348;DHT22;18821;44.800;10.326;2023-12-29T03:35:44;9.70;99.90
32348;DHT22;18821;44.800;10.326;2023-12-29T03:38:10;9.70;99.90
32348;DHT22;18821;44.800;10.326;2023-12-29T03:40:36;9.70;99.90
32348;DHT22;18821;44.800;10.326;2023-12-29T03:43:02;9.70;99.90
32348;DHT22;18821;44.800;10.326;2023-12-29T03:45:28;9.80;99.90
32348;DHT22;18821;44.800;10.326;2023-12-29T03:47:54;9.80;99.90
32348;DHT22;18821;44.800;10.326;2023-12-29T03:50:20;9.80;99.90
32348;DHT22;18821;44.800;10.326;2023-12-29T03:52:46;9.80;99.90
32348;DHT22;18821;44.800;10.326;2023-12-29T03:55:12;9.80;99.90
32348;DHT22;18821;44.800;10.326;2023-12-29T03:57:39;9.80;99.90
32348;DHT22;18821;44.800;10.326;2023-12-29T04:00:05;9.80;99.90
32348;DHT22;18821;44.800;10.326;2023-12-29T04:02:38;9.80;99.90
32348;DHT22;18821;44.800;10.326;2023-12-29T04:05:05;9.80;99.90
32348;DHT22;18821;44.800;10.326;2023-12-29T04:07:33;9.80;99.90
32348;DHT22;18821;44.800;10.326;2023-12-29T04:09:58;9.90;99.90
32348;DHT22;18821;44.800;10.326;2023-12-29T04:12:24;9.80;99.90
32348;DHT22;18821;44.800;10.326;2023-12-29T04:14:51;9.90;99.90
32348;DHT22;18821;44.800;10.326;2023-12-29T04:17:17;9.90;99.90
32348;DHT22;18821;44.800;10.326;2023-12-29T04:19:42;9.90;99.90
32348;DHT22;18821;44.800;10.326;2023-12-29T04:22:08;9.90;99.90
32348;DHT22;18821;44.800;10.326;2023-12-29T04:24:37;9.90;99.90
32348;DHT22;18821;44.800;10.326;2023-12-29T04:27:03;9.90;99.90
32348;DHT22;18821;44.800;10.326;2023-12-29T04:29:29;9.90;99.90
32348;DHT22;18821;44.800;10.326;2023-12-29T04:31:55;9.90;99.90
32348;DHT22;18821;44.800;10.326;2023-12-29T04:34:21;9.90;99.90
32348;DHT22;18821;44.800;10.326;2023-12-29T04:36:47;9.90;99.90
32348;DHT22;18821;44.800;10.326;2023-12-29T04:39:15;9.90;99.90
32348;DHT22;18821;44.800;10.326;2023-12-29T04:41:44;10.00;99.90
32348;DHT22;18821;44.800;10.326;2023-12-29T04:44:10;9.90;99.90
32348;DHT22;18821;44.800;10.326;2023-12-29T04:46:36;9.90;99.90
32348;DHT22;18821;44.800;10.326;2023-12-29T04:49:02;9.90;99.90
32348;DHT22;18821;44.800;10.326;2023-12-29T04:51:28;9.90;99.90
32348;DHT22;18821;44.800;10.326;2023-12-29T04:53:54;9.90;99.90
32348;DHT22;18821;44.800;10.326;2023-12-29T04:56:19;9.90;99.90
32348;DHT22;18821;44.800;10.326;2023-12-29T04:58:45;10.00;99.90
32348;DHT22;18821;44.800;10.326;2023-12-29T05:01:11;10.00;99.90
32348;DHT22;18821;44.800;10.326;2023-12-29T05:03:37;10.00;99.90
32348;DHT22;18821;44.800;10.326;2023-12-29T05:06:03;10.00;99.90
32348;DHT22;18821;44.800;10.326;2023-12-29T05:08:29;10.00;99.90
32348;DHT22;18821;44.800;10.326;2023-12-29T05:10:55;10.00;99.90
32348;DHT22;18821;44.800;10.326;2023-12-29T05:13:21;10.00;99.90
32348;DHT22;18821;44.800;10.326;2023-12-29T05:15:47;10.00;99.90
32348;DHT22;18821;44.800;10.326;2023-12-29T05:18:13;10.00;99.90
32348;DHT22;18821;44.800;10.326;2023-12-29T05:20:39;10.00;99.90
32348;DHT22;18821;44.800;10.326;2023-12-29T05:23:05;10.00;99.90
32348;DHT22;18821;44.800;10.326;2023-12-29T05:25:31;10.00;99.90
32348;DHT22;18821;44.800;10.326;2023-12-29T05:27:56;10.00;99.90
32348;DHT22;18821;44.800;10.326;2023-12-29T05:30:22;10.00;99.90
32348;DHT22;18821;44.800;10.326;2023-12-29T05:32:48;10.00;99.90
32348;DHT22;18821;44.800;10.326;2023-12-29T05:35:14;10.00;99.90
32348;DHT22;18821;44.800;10.326;2023-12-29T05:37:40;10.00;99.90
32348;DHT22;18821;44.800;10.326;2023-12-29T05:40:06;9.90;99.90
32348;DHT22;18821;44.800;10.326;2023-12-29T05:42:32;9.90;99.90
32348;DHT22;18821;44.800;10.326;2023-12-29T05:44:58;9.90;99.90
32348;DHT22;18821;44.800;10.326;2023-12-29T05:47:24;9.90;99.90
32348;DHT22;18821;44.800;10.326;2023-12-29T05:49:50;10.00;99.90
32348;DHT22;18821;44.800;10.326;2023-12-29T05:52:16;10.00;99.90
32348;DHT22;18821;44.800;10.326;2023-12-29T05:54:42;10.00;99.90
32348;DHT22;18821;44.800;10.326;2023-12-29T05:57:08;10.00;99.90
32348;DHT22;18821;44.800;10.326;2023-12-29T05:59:34;9.90;99.90
32348;DHT22;18821;44.800;10.326;2023-12-29T06:02:00;9.80;99.90
32348;DHT22;18821;44.800;10.326;2023-12-29T06:04:26;9.70;99.90
32348;DHT22;18821;44.800;10.326;2023-12-29T06:06:52;9.60;99.90
32348;DHT22;18821;44.800;10.326;2023-12-29T06:09:18;9.40;99.90
32348;DHT22;18821;44.800;10.326;2023-12-29T06:11:44;9.30;99.90
32348;DHT22;18821;44.800;10.326;2023-12-29T06:14:10;9.20;99.90
32348;DHT22;18821;44.800;10.326;2023-12-29T06:16:35;9.10;99.90
32348;DHT22;18821;44.800;10.326;2023-12-29T06:19:01;9.00;99.90
32348;DHT22;18821;44.800;10.326;2023-12-29T06:21:27;9.00;99.90
32348;DHT22;18821;44.800;10.326;2023-12-29T06:23:53;9.00;99.90
32348;DHT22;18821;44.800;10.326;2023-12-29T06:26:20;9.10;99.90
32348;DHT22;18821;44.800;10.326;2023-12-29T06:28:47;9.00;99.90
32348;DHT22;18821;44.800;10.326;2023-12-29T06:31:13;9.00;99.90
32348;DHT22;18821;44.800;10.326;2023-12-29T06:33:43;9.00;99.90
32348;DHT22;18821;44.800;10.326;2023-12-29T06:36:09;9.00;99.90
32348;DHT22;18821;44.800;10.326;2023-12-29T06:38:36;9.00;99.90
32348;DHT22;18821;44.800;10.326;2023-12-29T06:41:03;8.90;99.90
32348;DHT22;18821;44.800;10.326;2023-12-29T06:43:30;8.90;99.90
32348;DHT22;18821;44.800;10.326;2023-12-29T06:45:56;9.00;99.90
32348;DHT22;18821;44.800;10.326;2023-12-29T06:48:22;9.00;99.90
32348;DHT22;18821;44.800;10.326;2023-12-29T06:50:48;9.00;99.90
32348;DHT22;18821;44.800;10.326;2023-12-29T06:53:14;8.90;99.90
32348;DHT22;18821;44.800;10.326;2023-12-29T06:55:40;8.90;99.90
32348;DHT22;18821;44.800;10.326;2023-12-29T06:58:06;8.90;99.90
32348;DHT22;18821;44.800;10.326;2023-12-29T07:00:32;8.90;99.90
32348;DHT22;18821;44.800;10.326;2023-12-29T07:03:00;9.00;99.90
32348;DHT22;18821;44.800;10.326;2023-12-29T07:05:27;9.10;99.90
32348;DHT22;18821;44.800;10.326;2023-12-29T07:07:53;9.20;99.90
32348;DHT22;18821;44.800;10.326;2023-12-29T07:10:19;9.20;99.90
32348;DHT22;18821;44.800;10.326;2023-12-29T07:12:45;9.20;99.90
32348;DHT22;18821;44.800;10.326;2023-12-29T07:15:11;9.20;99.90
32348;DHT22;18821;44.800;10.326;2023-12-29T07:17:39;9.30;99.90
32348;DHT22;18821;44.800;10.326;2023-12-29T07:20:06;9.30;99.90
32348;DHT22;18821;44.800;10.326;2023-12-29T07:22:33;9.40;99.90
32348;DHT22;18821;44.800;10.326;2023-12-29T07:24:59;9.40;99.90
32348;DHT22;18821;44.800;10.326;2023-12-29T07:27:25;9.40;99.90
32348;DHT22;18821;44.800;10.326;2023-12-29T07:29:51;9.50;99.90
32348;DHT22;18821;44.800;10.326;2023-12-29T07:32:16;9.50;99.90
32348;DHT22;18821;44.800;10.326;2023-12-29T07:34:42;9.50;99.90
32348;DHT22;18821;44.800;10.326;2023-12-29T07:37:09;9.50;99.90
32348;DHT22;18821;44.800;10.326;2023-12-29T07:39:39;9.60;99.90
32348;DHT22;18821;44.800;10.326;2023-12-29T07:42:04;9.60;99.90
32348;DHT22;18821;44.800;10.326;2023-12-29T07:44:31;9.70;99.90
32348;DHT22;18821;44.800;10.326;2023-12-29T07:46:57;9.70;99.90
32348;DHT22;18821;44.800;10.326;2023-12-29T07:49:23;9.80;99.90
32348;DHT22;18821;44.800;10.326;2023-12-29T07:51:49;10.00;99.90
32348;DHT22;18821;44.800;10.326;2023-12-29T07:54:15;10.10;99.90
32348;DHT22;18821;44.800;10.326;2023-12-29T07:56:41;10.20;99.90
32348;DHT22;18821;44.800;10.326;2023-12-29T07:59:08;10.20;99.90
32348;DHT22;18821;44.800;10.326;2023-12-29T08:01:34;10.20;99.90
32348;DHT22;18821;44.800;10.326;2023-12-29T08:04:03;10.20;99.90
32348;DHT22;18821;44.800;10.326;2023-12-29T08:06:29;10.30;99.90
32348;DHT22;18821;44.800;10.326;2023-12-29T08:08:55;10.30;99.90
32348;DHT22;18821;44.800;10.326;2023-12-29T08:11:21;10.40;99.90
32348;DHT22;18821;44.800;10.326;2023-12-29T08:13:48;10.50;99.90
32348;DHT22;18821;44.800;10.326;2023-12-29T08:16:15;10.40;99.90
32348;DHT22;18821;44.800;10.326;2023-12-29T08:18:43;10.20;99.90
32348;DHT22;18821;44.800;10.326;2023-12-29T08:21:16;10.20;99.90
32348;DHT22;18821;44.800;10.326;2023-12-29T08:23:42;10.30;99.90
32348;DHT22;18821;44.800;10.326;2023-12-29T08:26:08;10.30;99.90
32348;DHT22;18821;44.800;10.326;2023-12-29T08:28:34;10.30;99.90
32348;DHT22;18821;44.800;10.326;2023-12-29T08:31:00;10.20;99.90
32348;DHT22;18821;44.800;10.326;2023-12-29T08:33:26;10.20;99.90
32348;DHT22;18821;44.800;10.326;2023-12-29T08:35:52;10.30;99.90
32348;DHT22;18821;44.800;10.326;2023-12-29T08:38:17;10.30;99.90
32348;DHT22;18821;44.800;10.326;2023-12-29T08:40:43;10.30;99.90
32348;DHT22;18821;44.800;10.326;2023-12-29T08:43:09;10.30;99.90
32348;DHT22;18821;44.800;10.326;2023-12-29T08:45:35;10.30;99.90
32348;DHT22;18821;44.800;10.326;2023-12-29T08:48:02;10.10;99.90
32348;DHT22;18821;44.800;10.326;2023-12-29T08:50:28;10.00;99.90
32348;DHT22;18821;44.800;10.326;2023-12-29T08:52:54;10.00;99.90
32348;DHT22;18821;44.800;10.326;2023-12-29T08:55:20;10.10;99.90
32348;DHT22;18821;44.800;10.326;2023-12-29T08:57:46;10.20;99.90
32348;DHT22;18821;44.800;10.326;2023-12-29T09:00:12;10.30;99.90
32348;DHT22;18821;44.800;10.326;2023-12-29T09:02:38;10.40;99.90
32348;DHT22;18821;44.800;10.326;2023-12-29T09:05:05;10.50;99.90
32348;DHT22;18821;44.800;10.326;2023-12-29T09:07:32;10.30;99.90
32348;DHT22;18821;44.800;10.326;2023-12-29T09:09:58;10.20;99.90
32348;DHT22;18821;44.800;10.326;2023-12-29T09:12:28;10.10;99.90
32348;DHT22;18821;44.800;10.326;2023-12-29T09:14:54;10.20;99.90
32348;DHT22;18821;44.800;10.326;2023-12-29T09:17:20;10.20;99.90
32348;DHT22;18821;44.800;10.326;2023-12-29T09:19:46;10.10;99.90
32348;DHT22;18821;44.800;10.326;2023-12-29T09:22:13;10.00;99.90
32348;DHT22;18821;44.800;10.326;2023-12-29T09:24:39;10.10;99.90
32348;DHT22;18821;44.800;10.326;2023-12-29T09:27:05;10.10;99.90
32348;DHT22;18821;44.800;10.326;2023-12-29T09:29:31;10.10;99.90
32348;DHT22;18821;44.800;10.326;2023-12-29T09:31:57;10.10;99.90
32348;DHT22;18821;44.800;10.326;2023-12-29T09:34:23;10.10;99.90
32348;DHT22;18821;44.800;10.326;2023-12-29T09:36:49;10.10;99.90
32348;DHT22;18821;44.800;10.326;2023-12-29T09:39:15;10.20;99.90
32348;DHT22;18821;44.800;10.326;2023-12-29T09:41:45;10.20;99.90
32348;DHT22;18821;44.800;10.326;2023-12-29T09:44:15;10.20;99.90
32348;DHT22;18821;44.800;10.326;2023-12-29T09:46:42;10.30;99.90
32348;DHT22;18821;44.800;10.326;2023-12-29T09:49:09;10.20;99.90
32348;DHT22;18821;44.800;10.326;2023-12-29T09:51:36;10.30;99.90
32348;DHT22;18821;44.800;10.326;2023-12-29T09:54:03;10.40;99.90
32348;DHT22;18821;44.800;10.326;2023-12-29T09:56:30;10.40;99.90
32348;DHT22;18821;44.800;10.326;2023-12-29T09:58:57;10.40;99.90
32348;DHT22;18821;44.800;10.326;2023-12-29T10:01:24;10.40;99.90
32348;DHT22;18821;44.800;10.326;2023-12-29T10:03:52;10.40;99.90
32348;DHT22;18821;44.800;10.326;2023-12-29T10:06:24;10.40;99.90
32348;DHT22;18821;44.800;10.326;2023-12-29T10:08:50;10.50;99.90
32348;DHT22;18821;44.800;10.326;2023-12-29T10:11:21;10.30;99.90
32348;DHT22;18821;44.800;10.326;2023-12-29T10:13:49;10.30;99.90
32348;DHT22;18821;44.800;10.326;2023-12-29T10:16:35;10.30;99.90
32348;DHT22;18821;44.800;10.326;2023-12-29T10:21:55;10.40;99.90
32348;DHT22;18821;44.800;10.326;2023-12-29T10:24:22;10.40;99.90
32348;DHT22;18821;44.800;10.326;2023-12-29T10:26:49;10.40;99.90
32348;DHT22;18821;44.800;10.326;2023-12-29T10:29:16;10.40;99.90
32348;DHT22;18821;44.800;10.326;2023-12-29T10:31:44;10.50;99.90
32348;DHT22;18821;44.800;10.326;2023-12-29T10:34:28;10.70;99.90
32348;DHT22;18821;44.800;10.326;2023-12-29T10:36:58;10.50;99.90
32348;DHT22;18821;44.800;10.326;2023-12-29T10:39:25;10.50;99.90
32348;DHT22;18821;44.800;10.326;2023-12-29T10:42:05;10.60;99.90
32348;DHT22;18821;44.800;10.326;2023-12-29T10:44:33;10.60;99.90
32348;DHT22;18821;44.800;10.326;2023-12-29T10:47:06;10.60;99.90
32348;DHT22;18821;44.800;10.326;2023-12-29T10:49:32;10.60;99.90
32348;DHT22;18821;44.800;10.326;2023-12-29T10:51:58;10.70;99.90
32348;DHT22;18821;44.800;10.326;2023-12-29T10:54:24;10.80;99.90
32348;DHT22;18821;44.800;10.326;2023-12-29T10:57:03;11.00;99.90
32348;DHT22;18821;44.800;10.326;2023-12-29T10:59:29;11.10;99.90
32348;DHT22;18821;44.800;10.326;2023-12-29T11:01:56;11.00;99.90
32348;DHT22;18821;44.800;10.326;2023-12-29T11:04:23;10.90;99.90
32348;DHT22;18821;44.800;10.326;2023-12-29T11:06:49;10.80;99.90
32348;DHT22;18821;44.800;10.326;2023-12-29T11:09:33;10.80;99.90
32348;DHT22;18821;44.800;10.326;2023-12-29T11:12:03;10.70;99.90
32348;DHT22;18821;44.800;10.326;2023-12-29T11:14:30;10.90;99.90
32348;DHT22;18821;44.800;10.326;2023-12-29T11:16:59;11.00;99.90
32348;DHT22;18821;44.800;10.326;2023-12-29T11:19:26;11.10;99.90
32348;DHT22;18821;44.800;10.326;2023-12-29T11:21:55;11.20;99.90
32348;DHT22;18821;44.800;10.326;2023-12-29T11:24:22;11.10;99.90
32348;DHT22;18821;44.800;10.326;2023-12-29T11:26:51;11.00;99.90
32348;DHT22;18821;44.800;10.326;2023-12-29T11:29:18;10.80;99.90
32348;DHT22;18821;44.800;10.326;2023-12-29T11:31:47;10.90;99.90
32348;DHT22;18821;44.800;10.326;2023-12-29T11:34:28;10.80;99.90
32348;DHT22;18821;44.800;10.326;2023-12-29T11:39:42;10.80;99.90
32348;DHT22;18821;44.800;10.326;2023-12-29T11:42:27;10.90;99.90
32348;DHT22;18821;44.800;10.326;2023-12-29T11:44:55;10.80;99.90
32348;DHT22;18821;44.800;10.326;2023-12-29T11:47:37;10.80;99.90
32348;DHT22;18821;44.800;10.326;2023-12-29T11:50:04;10.70;99.90
32348;DHT22;18821;44.800;10.326;2023-12-29T11:52:38;10.40;99.90
32348;DHT22;18821;44.800;10.326;2023-12-29T11:55:11;10.50;99.90
32348;DHT22;18821;44.800;10.326;2023-12-29T11:57:41;10.50;99.90
32348;DHT22;18821;44.800;10.326;2023-12-29T12:00:08;10.50;99.90
32348;DHT22;18821;44.800;10.326;2023-12-29T12:02:40;10.40;99.90
32348;DHT22;18821;44.800;10.326;2023-12-29T12:05:09;10.40;99.90
32348;DHT22;18821;44.800;10.326;2023-12-29T12:12:49;10.50;99.90
32348;DHT22;18821;44.800;10.326;2023-12-29T12:17:56;10.60;99.90
32348;DHT22;18821;44.800;10.326;2023-12-29T12:20:23;10.70;99.90
32348;DHT22;18821;44.800;10.326;2023-12-29T12:22:55;10.70;99.90
32348;DHT22;18821;44.800;10.326;2023-12-29T12:25:30;10.80;99.90
32348;DHT22;18821;44.800;10.326;2023-12-29T12:28:01;10.80;99.90
32348;DHT22;18821;44.800;10.326;2023-12-29T12:30:41;10.90;99.90
32348;DHT22;18821;44.800;10.326;2023-12-29T12:33:07;10.90;99.90
32348;DHT22;18821;44.800;10.326;2023-12-29T12:35:36;10.90;99.90
32348;DHT22;18821;44.800;10.326;2023-12-29T12:38:16;10.90;99.90
32348;DHT22;18821;44.800;10.326;2023-12-29T12:40:50;10.90;99.90
32348;DHT22;18821;44.800;10.326;2023-12-29T12:43:17;11.10;99.90
32348;DHT22;18821;44.800;10.326;2023-12-29T12:45:48;11.00;99.90
32348;DHT22;18821;44.800;10.326;2023-12-29T12:48:34;11.00;99.90
32348;DHT22;18821;44.800;10.326;2023-12-29T12:51:02;10.90;99.90
32348;DHT22;18821;44.800;10.326;2023-12-29T12:53:29;10.90;99.90
32348;DHT22;18821;44.800;10.326;2023-12-29T12:55:55;11.00;99.90
32348;DHT22;18821;44.800;10.326;2023-12-29T12:58:21;11.00;99.90
32348;DHT22;18821;44.800;10.326;2023-12-29T13:00:47;11.00;99.90
32348;DHT22;18821;44.800;10.326;2023-12-29T13:03:14;11.00;99.90
32348;DHT22;18821;44.800;10.326;2023-12-29T13:05:41;11.00;99.90
32348;DHT22;18821;44.800;10.326;2023-12-29T13:08:07;11.10;99.90
32348;DHT22;18821;44.800;10.326;2023-12-29T13:10:40;11.00;99.90
32348;DHT22;18821;44.800;10.326;2023-12-29T13:13:07;11.00;99.90
32348;DHT22;18821;44.800;10.326;2023-12-29T13:15:34;10.90;99.90
32348;DHT22;18821;44.800;10.326;2023-12-29T13:18:00;10.90;99.90
32348;DHT22;18821;44.800;10.326;2023-12-29T13:20:25;10.90;99.90
32348;DHT22;18821;44.800;10.326;2023-12-29T13:22:51;10.90;99.90
32348;DHT22;18821;44.800;10.326;2023-12-29T13:25:26;10.90;99.90
32348;DHT22;18821;44.800;10.326;2023-12-29T13:27:54;10.80;99.90
32348;DHT22;18821;44.800;10.326;2023-12-29T13:30:21;10.80;99.90
32348;DHT22;18821;44.800;10.326;2023-12-29T13:32:49;10.90;99.90
32348;DHT22;18821;44.800;10.326;2023-12-29T13:35:23;10.80;99.90
32348;DHT22;18821;44.800;10.326;2023-12-29T13:38:01;10.80;99.90
32348;DHT22;18821;44.800;10.326;2023-12-29T13:43:01;10.90;99.90
32348;DHT22;18821;44.800;10.326;2023-12-29T13:45:30;10.80;99.90
32348;DHT22;18821;44.800;10.326;2023-12-29T13:47:58;10.80;99.90
32348;DHT22;18821;44.800;10.326;2023-12-29T13:50:25;10.70;99.90
32348;DHT22;18821;44.800;10.326;2023-12-29T13:52:51;10.50;99.90
32348;DHT22;18821;44.800;10.326;2023-12-29T13:55:24;10.40;99.90
32348;DHT22;18821;44.800;10.326;2023-12-29T13:57:51;10.40;99.90
32348;DHT22;18821;44.800;10.326;2023-12-29T14:00:18;10.30;99.90
32348;DHT22;18821;44.800;10.326;2023-12-29T14:05:47;10.30;99.90
32348;DHT22;18821;44.800;10.326;2023-12-29T14:08:19;10.20;99.90
32348;DHT22;18821;44.800;10.326;2023-12-29T14:10:49;10.30;99.90
32348;DHT22;18821;44.800;10.326;2023-12-29T14:13:16;10.30;99.90
32348;DHT22;18821;44.800;10.326;2023-12-29T14:15:44;10.40;99.90
32348;DHT22;18821;44.800;10.326;2023-12-29T14:20:39;10.30;99.90
32348;DHT22;18821;44.800;10.326;2023-12-29T14:23:08;10.40;99.90
32348;DHT22;18821;44.800;10.326;2023-12-29T14:25:38;10.40;99.90
32348;DHT22;18821;44.800;10.326;2023-12-29T14:28:15;10.40;99.90
32348;DHT22;18821;44.800;10.326;2023-12-29T14:30:41;10.50;99.90
32348;DHT22;18821;44.800;10.326;2023-12-29T14:33:07;10.50;99.90
32348;DHT22;18821;44.800;10.326;2023-12-29T14:35:34;10.60;99.90
32348;DHT22;18821;44.800;10.326;2023-12-29T14:38:00;10.60;99.90
32348;DHT22;18821;44.800;10.326;2023-12-29T14:40:26;10.60;99.90
32348;DHT22;18821;44.800;10.326;2023-12-29T14:42:52;10.60;99.90
32348;DHT22;18821;44.800;10.326;2023-12-29T14:45:18;10.50;99.90
32348;DHT22;18821;44.800;10.326;2023-12-29T14:47:44;10.50;99.90
32348;DHT22;18821;44.800;10.326;2023-12-29T14:50:15;10.60;99.90
32348;DHT22;18821;44.800;10.326;2023-12-29T14:52:42;10.60;99.90
32348;DHT22;18821;44.800;10.326;2023-12-29T14:55:08;10.60;99.90
32348;DHT22;18821;44.800;10.326;2023-12-29T14:57:34;10.60;99.90
32348;DHT22;18821;44.800;10.326;2023-12-29T15:00:00;10.60;99.90
32348;DHT22;18821;44.800;10.326;2023-12-29T15:02:25;10.60;99.90
32348;DHT22;18821;44.800;10.326;2023-12-29T15:04:51;10.70;99.90
32348;DHT22;18821;44.800;10.326;2023-12-29T15:07:17;10.70;99.90
32348;DHT22;18821;44.800;10.326;2023-12-29T15:09:44;10.70;99.90
32348;DHT22;18821;44.800;10.326;2023-12-29T15:12:10;10.70;99.90
32348;DHT22;18821;44.800;10.326;2023-12-29T15:14:35;10.70;99.90
32348;DHT22;18821;44.800;10.326;2023-12-29T15:17:01;10.60;99.90
32348;DHT22;18821;44.800;10.326;2023-12-29T15:19:27;10.60;99.90
32348;DHT22;18821;44.800;10.326;2023-12-29T15:21:53;10.60;99.90
32348;DHT22;18821;44.800;10.326;2023-12-29T15:24:20;10.60;99.90
32348;DHT22;18821;44.800;10.326;2023-12-29T15:26:46;10.50;99.90
32348;DHT22;18821;44.800;10.326;2023-12-29T15:29:12;10.50;99.90
32348;DHT22;18821;44.800;10.326;2023-12-29T15:31:42;10.50;99.90
32348;DHT22;18821;44.800;10.326;2023-12-29T15:34:09;10.40;99.90
32348;DHT22;18821;44.800;10.326;2023-12-29T15:36:34;10.40;99.90
32348;DHT22;18821;44.800;10.326;2023-12-29T15:39:01;10.40;99.90
32348;DHT22;18821;44.800;10.326;2023-12-29T15:41:27;10.40;99.90
32348;DHT22;18821;44.800;10.326;2023-12-29T15:43:53;10.30;99.90
32348;DHT22;18821;44.800;10.326;2023-12-29T15:46:19;10.20;99.90
32348;DHT22;18821;44.800;10.326;2023-12-29T15:48:48;10.20;99.90
32348;DHT22;18821;44.800;10.326;2023-12-29T15:51:14;10.20;99.90